createdAt,value
2018-12-01T00:01:19.400Z,54.90
2018-12-01T00:03:49.302Z,55.37
2018-12-01T00:06:19.321Z,58.00
2018-12-01T00:08:49.111Z,55.33
2018-12-01T00:11:19.021Z,55.50
2018-12-01T00:13:48.884Z,59.07
2018-12-01T00:16:18.718Z,57.87
2018-12-01T00:18:48.685Z,59.07
2018-12-01T00:21:19.092Z,56.73
2018-12-01T00:23:49.242Z,58.73
2018-12-01T00:26:18.922Z,59.37
2018-12-01T00:28:48.798Z,57.07
2018-12-01T00:31:18.631Z,57.57
2018-12-01T00:33:48.528Z,59.17
2018-12-01T00:36:18.489Z,52.97
2018-12-01T00:38:48.410Z,55.13
2018-12-01T00:41:18.255Z,49.50
2018-12-01T00:43:48.172Z,55.03
2018-12-01T00:46:18.320Z,53.03
2018-12-01T00:48:48.249Z,56.73
2018-12-01T00:51:18.268Z,55.50
2018-12-01T00:53:48.082Z,55.60
2018-12-01T00:56:17.979Z,55.77
2018-12-01T00:58:47.868Z,54.80
2018-12-01T01:01:17.784Z,56.20
2018-12-01T01:03:47.649Z,54.03
2018-12-01T01:06:18.679Z,51.30
2018-12-01T01:08:48.566Z,53.20
2018-12-01T01:11:18.473Z,53.03
2018-12-01T01:13:48.409Z,57.87
2018-12-01T01:16:18.344Z,53.17
2018-12-01T01:18:48.228Z,54.53
2018-12-01T01:21:18.060Z,52.97
2018-12-01T01:23:47.879Z,57.03
2018-12-01T01:26:17.747Z,52.23
2018-12-01T01:28:47.651Z,56.53
2018-12-01T01:31:17.440Z,55.90
2018-12-01T01:33:47.277Z,58.30
2018-12-01T01:36:17.157Z,54.13
2018-12-01T01:38:47.031Z,54.17
2018-12-01T01:41:16.901Z,57.27
2018-12-01T01:43:46.860Z,56.73
2018-12-01T01:46:16.784Z,57.20
2018-12-01T01:48:46.647Z,56.53
2018-12-01T01:51:16.512Z,55.60
2018-12-01T01:53:46.320Z,56.17
2018-12-01T01:56:16.192Z,55.33
2018-12-01T01:58:46.092Z,54.73
2018-12-01T02:01:15.902Z,57.37
2018-12-01T02:03:45.800Z,57.60
2018-12-01T02:06:15.696Z,58.57
2018-12-01T02:08:45.548Z,63.23
2018-12-01T02:11:15.300Z,55.37
2018-12-01T02:13:45.204Z,64.57
2018-12-01T02:16:15.088Z,64.50
2018-12-01T02:18:44.976Z,62.13
2018-12-01T02:21:14.848Z,66.30
2018-12-01T02:23:44.685Z,62.43
2018-12-01T02:26:14.508Z,58.73
2018-12-01T02:28:44.400Z,66.00
2018-12-01T02:31:14.238Z,60.57
2018-12-01T02:33:44.140Z,64.13
2018-12-01T02:36:14.109Z,64.80
2018-12-01T02:38:44.003Z,61.97
2018-12-01T02:41:13.825Z,67.07
2018-12-01T02:43:43.795Z,67.30
2018-12-01T02:46:24.417Z,65.57
2018-12-01T02:48:54.326Z,62.97
2018-12-01T02:51:24.181Z,64.97
2018-12-01T02:53:53.997Z,62.30
2018-12-01T02:56:23.909Z,63.13
2018-12-01T02:58:53.703Z,65.33
2018-12-01T03:01:23.539Z,64.57
2018-12-01T03:03:53.435Z,66.60
2018-12-01T03:06:23.336Z,66.47
2018-12-01T03:08:53.388Z,63.37
2018-12-01T03:11:23.137Z,63.60
2018-12-01T03:13:52.932Z,57.23
2018-12-01T03:16:22.752Z,61.93
2018-12-01T03:18:52.651Z,62.83
2018-12-01T03:21:22.432Z,60.43
2018-12-01T03:23:52.608Z,63.17
2018-12-01T03:26:22.440Z,59.47
2018-12-01T03:28:53.508Z,59.70
2018-12-01T03:31:23.281Z,59.07
2018-12-01T03:33:53.401Z,58.67
2018-12-01T03:36:23.209Z,58.40
2018-12-01T03:38:53.256Z,59.00
2018-12-01T03:41:23.017Z,56.90
2018-12-01T03:43:52.805Z,54.57
2018-12-01T03:46:22.651Z,60.00
2018-12-01T03:48:52.488Z,57.97
2018-12-01T03:51:22.280Z,58.37
2018-12-01T03:53:52.056Z,56.13
2018-12-01T03:56:21.940Z,57.23
2018-12-01T03:58:51.740Z,54.07
2018-12-01T04:01:21.480Z,55.33
2018-12-01T04:03:51.368Z,60.10
2018-12-01T04:06:21.190Z,57.90
2018-12-01T04:08:51.210Z,59.03
2018-12-01T04:11:21.357Z,58.53
2018-12-01T04:13:51.704Z,54.80
2018-12-01T04:16:21.539Z,60.43
2018-12-01T04:18:51.340Z,56.80
2018-12-01T04:21:21.070Z,85.93
2018-12-01T04:23:51.307Z,60.77
2018-12-01T04:26:22.286Z,57.63
2018-12-01T04:28:52.618Z,56.73
2018-12-01T04:31:22.219Z,57.30
2018-12-01T04:33:51.919Z,57.00
2018-12-01T04:36:22.040Z,63.37
2018-12-01T04:38:51.908Z,60.33
2018-12-01T04:41:21.688Z,80.57
2018-12-01T04:43:51.531Z,67.53
2018-12-01T04:46:21.413Z,59.27
2018-12-01T04:48:51.232Z,61.33
2018-12-01T04:51:21.906Z,55.70
2018-12-01T04:53:51.634Z,57.00
2018-12-01T04:56:21.598Z,56.13
2018-12-01T04:58:51.683Z,59.73
2018-12-01T05:01:21.807Z,57.43
2018-12-01T05:03:51.771Z,61.43
2018-12-01T05:06:21.849Z,58.97
2018-12-01T05:08:52.399Z,60.63
2018-12-01T05:11:22.617Z,60.20
2018-12-01T05:13:52.416Z,59.93
2018-12-01T05:16:22.687Z,59.57
2018-12-01T05:18:52.510Z,62.53
2018-12-01T05:21:22.176Z,65.90
2018-12-01T05:23:51.908Z,64.77
2018-12-01T05:26:21.737Z,61.00
2018-12-01T05:28:52.443Z,61.67
2018-12-01T05:31:23.066Z,65.20
2018-12-01T05:33:52.711Z,63.00
2018-12-01T05:36:23.024Z,60.03
2018-12-01T05:38:52.720Z,64.93
2018-12-01T05:41:23.737Z,61.53
2018-12-01T05:43:53.880Z,61.43
2018-12-01T05:46:23.867Z,63.00
2018-12-01T05:48:53.643Z,62.57
2018-12-01T05:51:24.670Z,63.17
2018-12-01T05:53:55.440Z,63.70
2018-12-01T05:56:25.259Z,65.63
2018-12-01T05:58:55.633Z,65.00
2018-12-01T06:01:25.333Z,68.57
2018-12-01T06:03:55.434Z,66.27
2018-12-01T06:06:25.151Z,65.30
2018-12-01T06:08:54.946Z,64.37
2018-12-01T06:11:25.261Z,70.27
2018-12-01T06:13:54.992Z,68.93
2018-12-01T06:16:24.796Z,71.20
2018-12-01T06:18:55.421Z,72.73
2018-12-01T06:21:25.204Z,73.33
2018-12-01T06:23:55.004Z,94.27
2018-12-01T06:26:24.951Z,73.97
2018-12-01T06:28:54.731Z,76.03
2018-12-01T06:31:24.418Z,73.90
2018-12-01T06:33:54.196Z,73.80
2018-12-01T06:36:24.002Z,80.10
2018-12-01T06:38:54.843Z,74.40
2018-12-01T06:41:24.643Z,71.40
2018-12-01T06:43:55.343Z,75.13
2018-12-01T06:46:25.172Z,71.50
2018-12-01T06:48:55.001Z,77.53
2018-12-01T06:51:24.752Z,73.10
2018-12-01T06:53:54.493Z,73.63
2018-12-01T06:56:24.701Z,78.03
2018-12-01T06:58:54.530Z,74.30
2018-12-01T07:01:24.595Z,73.53
2018-12-01T07:03:54.293Z,71.07
2018-12-01T07:06:24.462Z,72.30
2018-12-01T07:08:54.680Z,70.23
2018-12-01T07:11:24.364Z,79.33
2018-12-01T07:13:54.134Z,73.20
2018-12-01T07:16:24.321Z,80.37
2018-12-01T07:19:19.157Z,78.20
2018-12-01T07:21:49.552Z,77.53
2018-12-01T07:24:19.304Z,72.70
2018-12-01T07:26:49.162Z,78.40
2018-12-01T07:29:19.026Z,79.50
2018-12-01T07:31:48.987Z,70.40
2018-12-01T07:34:18.819Z,75.67
2018-12-01T07:36:48.906Z,76.93
2018-12-01T07:39:19.436Z,75.53
2018-12-01T07:41:49.362Z,74.20
2018-12-01T07:44:19.444Z,77.87
2018-12-01T07:46:49.528Z,78.70
2018-12-01T07:49:19.368Z,74.07
2018-12-01T07:51:50.328Z,72.53
2018-12-01T07:54:20.123Z,71.23
2018-12-01T07:56:49.869Z,75.40
2018-12-01T07:59:19.828Z,73.33
2018-12-01T08:01:50.304Z,73.43
2018-12-01T08:04:20.696Z,77.97
2018-12-01T08:06:50.509Z,73.07
2018-12-01T08:09:20.853Z,72.00
2018-12-01T08:11:51.057Z,73.87
2018-12-01T08:14:21.281Z,73.67
2018-12-01T08:16:51.289Z,78.67
2018-12-01T08:19:21.474Z,70.73
2018-12-01T08:21:51.094Z,75.23
2018-12-01T08:24:21.366Z,73.80
2018-12-01T08:26:51.156Z,77.43
2018-12-01T08:29:21.179Z,72.97
2018-12-01T08:31:50.898Z,72.60
2018-12-01T08:34:20.647Z,70.87
2018-12-01T08:36:50.392Z,69.97
2018-12-01T08:39:20.107Z,69.93
2018-12-01T08:41:50.875Z,74.77
2018-12-01T08:44:20.647Z,72.63
2018-12-01T08:46:51.516Z,70.20
2018-12-01T08:49:22.522Z,75.20
2018-12-01T08:51:52.251Z,73.47
2018-12-01T08:54:22.522Z,74.93
2018-12-01T08:56:52.817Z,75.63
2018-12-01T08:59:23.452Z,76.73
2018-12-01T09:01:53.738Z,72.03
2018-12-01T09:04:23.544Z,75.57
2018-12-01T09:06:53.913Z,75.07
2018-12-01T09:09:23.690Z,72.67
2018-12-01T09:11:53.585Z,71.37
2018-12-01T09:14:23.388Z,73.77
2018-12-01T09:16:53.344Z,74.20
2018-12-01T09:19:23.424Z,77.73
2018-12-01T09:21:54.065Z,73.33
2018-12-01T09:24:24.193Z,72.10
2018-12-01T09:26:54.078Z,69.83
2018-12-01T09:29:24.410Z,74.17
2018-12-01T09:31:54.402Z,75.03
2018-12-01T09:34:24.532Z,74.70
2018-12-01T09:36:54.323Z,73.20
2018-12-01T09:39:24.472Z,75.57
2018-12-01T09:41:54.640Z,74.40
2018-12-01T09:44:24.737Z,77.03
2018-12-01T09:46:54.571Z,73.10
2018-12-01T09:49:24.689Z,71.93
2018-12-01T09:51:54.728Z,73.50
2018-12-01T09:54:24.940Z,72.97
2018-12-01T09:56:54.835Z,71.47
2018-12-01T09:59:25.069Z,75.67
2018-12-01T10:01:55.611Z,75.57
2018-12-01T10:04:25.486Z,72.77
2018-12-01T10:06:55.728Z,73.37
2018-12-01T10:09:25.941Z,73.47
2018-12-01T10:11:55.752Z,75.03
2018-12-01T10:14:25.729Z,75.27
2018-12-01T10:16:55.668Z,73.83
2018-12-01T10:19:25.833Z,76.20
2018-12-01T10:21:55.778Z,76.80
2018-12-01T10:24:25.898Z,77.83
2018-12-01T10:26:56.034Z,71.97
2018-12-01T10:29:25.923Z,71.73
2018-12-01T10:31:55.791Z,75.63
2018-12-01T10:34:25.700Z,78.23
2018-12-01T10:36:55.843Z,74.10
2018-12-01T10:39:26.501Z,77.17
2018-12-01T10:41:56.291Z,76.70
2018-12-01T10:44:26.591Z,75.53
2018-12-01T10:46:57.120Z,77.00
2018-12-01T10:49:26.963Z,79.83
2018-12-01T10:51:57.728Z,76.20
2018-12-01T10:54:29.004Z,75.50
2018-12-01T10:56:58.915Z,75.93
2018-12-01T10:59:29.213Z,73.93
2018-12-01T11:02:04.232Z,76.43
2018-12-01T11:04:40.250Z,75.87
2018-12-01T11:07:10.169Z,79.70
2018-12-01T11:09:40.310Z,77.90
2018-12-01T11:12:10.440Z,75.97
2018-12-01T11:14:40.694Z,74.70
2018-12-01T11:17:10.617Z,73.40
2018-12-01T11:19:40.499Z,74.80
2018-12-01T11:22:10.357Z,79.87
2018-12-01T11:24:40.277Z,75.83
2018-12-01T11:27:10.077Z,75.20
2018-12-01T11:29:39.994Z,74.73
2018-12-01T11:32:09.911Z,72.80
2018-12-01T11:34:40.056Z,75.67
2018-12-01T11:37:09.968Z,76.00
2018-12-01T11:39:40.924Z,75.23
2018-12-01T11:42:10.833Z,76.37
2018-12-01T11:44:41.129Z,75.40
2018-12-01T11:47:11.386Z,77.23
2018-12-01T11:49:42.026Z,78.80
2018-12-01T11:52:13.080Z,75.47
2018-12-01T11:54:43.788Z,79.10
2018-12-01T11:57:13.670Z,78.33
2018-12-01T11:59:43.713Z,75.20
2018-12-01T12:02:13.804Z,80.57
2018-12-01T12:04:44.810Z,83.57
2018-12-01T12:07:25.497Z,78.37
2018-12-01T12:09:55.428Z,87.97
2018-12-01T12:12:29.805Z,77.50
2018-12-01T12:14:59.760Z,74.23
2018-12-01T12:17:30.054Z,92.27
2018-12-01T12:19:59.929Z,81.30
2018-12-01T12:22:30.646Z,82.80
2018-12-01T12:25:01.030Z,78.70
2018-12-01T12:27:31.766Z,78.53
2018-12-01T12:30:02.080Z,94.70
2018-12-01T12:32:32.347Z,81.40
2018-12-01T12:35:02.491Z,75.17
2018-12-01T12:37:33.438Z,87.70
2018-12-01T12:40:03.271Z,80.60
2018-12-01T12:42:34.707Z,82.50
2018-12-01T12:45:05.009Z,84.83
2018-12-01T12:47:36.300Z,79.67
2018-12-01T12:50:08.512Z,85.10
2018-12-01T12:52:38.424Z,80.03
2018-12-01T12:55:10.850Z,83.00
2018-12-01T12:57:41.048Z,78.37
2018-12-01T13:00:16.038Z,79.07
2018-12-01T13:02:47.783Z,82.77
2018-12-01T13:05:24.180Z,80.40
2018-12-01T13:07:54.968Z,79.57
2018-12-01T13:10:26.066Z,80.73
2018-12-01T13:12:56.916Z,78.73
2018-12-01T13:15:27.674Z,75.10
2018-12-01T13:17:57.822Z,79.60
2018-12-01T13:20:27.972Z,79.67
2018-12-01T13:22:59.941Z,81.90
2018-12-01T13:25:30.372Z,76.50
2018-12-01T13:28:07.229Z,105.60
2018-12-01T13:30:42.520Z,91.00
2018-12-01T13:33:12.862Z,84.33
2018-12-01T13:35:42.971Z,84.67
2018-12-01T13:38:12.843Z,77.20
2018-12-01T13:40:42.996Z,80.37
2018-12-01T13:43:13.058Z,94.40
2018-12-01T13:45:43.572Z,79.77
2018-12-01T13:48:13.421Z,78.13
2018-12-01T13:50:43.297Z,80.00
2018-12-01T13:53:14.187Z,80.63
2018-12-01T13:55:44.162Z,85.93
2018-12-01T13:58:14.809Z,107.10
2018-12-01T14:00:45.807Z,82.33
2018-12-01T14:03:15.967Z,80.77
2018-12-01T14:05:45.982Z,78.23
2018-12-01T14:08:15.872Z,79.77
2018-12-01T14:10:47.861Z,82.97
2018-12-01T14:13:17.792Z,83.80
2018-12-01T14:15:48.408Z,81.67
2018-12-01T14:18:18.299Z,82.83
2018-12-01T14:20:48.132Z,79.87
2018-12-01T14:23:18.343Z,89.80
2018-12-01T14:25:49.137Z,78.43
2018-12-01T14:28:20.052Z,84.70
2018-12-01T14:30:49.948Z,86.63
2018-12-01T14:33:20.310Z,81.07
2018-12-01T14:35:50.551Z,82.27
2018-12-01T14:38:20.652Z,80.27
2018-12-01T14:40:51.066Z,81.67
2018-12-01T14:43:21.654Z,84.53
2018-12-01T14:45:51.928Z,80.80
2018-12-01T14:48:21.765Z,84.67
2018-12-01T14:50:52.077Z,82.23
2018-12-01T14:53:21.942Z,86.23
2018-12-01T14:55:52.137Z,83.47
2018-12-01T14:58:22.102Z,77.53
2018-12-01T15:00:52.853Z,84.40
2018-12-01T15:03:22.808Z,79.33
2018-12-01T15:05:52.957Z,83.30
2018-12-01T15:08:22.874Z,80.73
2018-12-01T15:10:52.788Z,77.17
2018-12-01T15:13:23.832Z,83.00
2018-12-01T15:15:53.613Z,77.80
2018-12-01T15:18:23.498Z,78.17
2018-12-01T15:20:53.599Z,86.63
2018-12-01T15:23:23.912Z,88.97
2018-12-01T15:25:53.932Z,84.63
2018-12-01T15:28:23.856Z,81.47
2018-12-01T15:30:54.518Z,89.57
2018-12-01T15:33:24.794Z,92.50
2018-12-01T15:35:54.741Z,80.03
2018-12-01T15:38:24.806Z,85.67
2018-12-01T15:40:55.015Z,87.87
2018-12-01T15:43:25.713Z,95.00
2018-12-01T15:45:55.791Z,91.77
2018-12-01T15:48:25.719Z,93.07
2018-12-01T15:50:56.436Z,98.60
2018-12-01T15:53:26.815Z,93.67
2018-12-01T15:55:57.168Z,96.00
2018-12-01T15:58:27.496Z,90.73
2018-12-01T16:00:57.927Z,92.93
2018-12-01T16:03:27.902Z,97.67
2018-12-01T16:05:57.815Z,87.70
2018-12-01T16:08:29.719Z,87.13
2018-12-01T16:10:59.587Z,97.70
2018-12-01T16:13:29.521Z,99.27
2018-12-01T16:16:06.459Z,85.47
2018-12-01T16:18:36.437Z,87.90
2018-12-01T16:21:08.590Z,93.83
2018-12-01T16:23:38.506Z,91.73
2018-12-01T16:26:08.707Z,95.17
2018-12-01T16:28:39.153Z,89.27
2018-12-01T16:31:09.276Z,88.77
2018-12-01T16:33:39.646Z,90.60
2018-12-01T16:36:10.090Z,92.90
2018-12-01T16:38:39.926Z,86.30
2018-12-01T16:41:28.152Z,87.00
2018-12-01T16:43:57.952Z,89.10
2018-12-01T16:46:29.618Z,92.53
2018-12-01T16:49:00.344Z,86.13
2018-12-01T16:51:31.397Z,95.40
2018-12-01T16:54:01.617Z,90.10
2018-12-01T16:56:31.616Z,92.60
2018-12-01T16:59:01.562Z,89.27
2018-12-01T17:01:32.054Z,91.90
2018-12-01T17:04:02.364Z,87.33
2018-12-01T17:06:32.209Z,95.53
2018-12-01T17:09:02.363Z,94.83
2018-12-01T17:11:33.001Z,94.20
2018-12-01T17:14:02.806Z,92.80
2018-12-01T17:16:32.795Z,95.47
2018-12-01T17:19:02.791Z,90.77
2018-12-01T17:21:32.919Z,95.60
2018-12-01T17:24:03.485Z,95.30
2018-12-01T17:26:33.386Z,94.83
2018-12-01T17:29:03.281Z,94.33
2018-12-01T17:31:33.545Z,95.47
2018-12-01T17:34:03.476Z,93.20
2018-12-01T17:36:33.418Z,95.77
2018-12-01T17:39:03.561Z,96.60
2018-12-01T17:41:33.441Z,98.43
2018-12-01T17:44:06.583Z,99.87
2018-12-01T17:46:36.819Z,95.83
2018-12-01T17:49:07.612Z,98.83
2018-12-01T17:51:37.466Z,104.53
2018-12-01T17:54:12.860Z,102.43
2018-12-01T17:56:43.744Z,98.37
2018-12-01T17:59:13.800Z,97.73
2018-12-01T18:01:43.680Z,93.63
2018-12-01T18:04:14.556Z,95.23
2018-12-01T18:06:44.840Z,97.53
2018-12-01T18:09:15.736Z,105.47
2018-12-01T18:11:45.979Z,95.70
2018-12-01T18:14:16.208Z,99.17
2018-12-01T18:16:46.359Z,96.40
2018-12-01T18:19:16.362Z,99.27
2018-12-01T18:21:46.311Z,97.50
2018-12-01T18:24:16.202Z,97.40
2018-12-01T18:26:46.134Z,96.30
2018-12-01T18:29:17.580Z,104.17
2018-12-01T18:31:48.231Z,111.67
2018-12-01T18:34:18.080Z,105.10
2018-12-01T18:36:49.226Z,111.50
2018-12-01T18:39:20.028Z,105.47
2018-12-01T18:41:49.856Z,104.90
2018-12-01T18:44:20.324Z,104.83
2018-12-01T18:46:51.207Z,118.47
2018-12-01T18:49:22.464Z,110.77
2018-12-01T18:51:53.147Z,107.97
2018-12-01T18:54:24.279Z,102.53
2018-12-01T18:56:54.308Z,107.47
2018-12-01T18:59:24.537Z,98.50
2018-12-01T19:01:55.087Z,95.87
2018-12-01T19:04:25.062Z,97.53
2018-12-01T19:06:55.125Z,100.17
2018-12-01T19:09:25.289Z,93.27
2018-12-01T19:11:55.152Z,95.93
2018-12-01T19:14:25.080Z,89.67
2018-12-01T19:16:55.620Z,88.40
2018-12-01T19:19:26.077Z,88.90
2018-12-01T19:21:56.321Z,90.17
2018-12-01T19:24:26.261Z,93.80
2018-12-01T19:26:56.241Z,90.57
2018-12-01T19:29:26.143Z,89.13
2018-12-01T19:31:56.806Z,91.87
2018-12-01T19:34:28.139Z,93.67
2018-12-01T19:36:58.200Z,91.23
2018-12-01T19:39:28.162Z,91.70
2018-12-01T19:41:57.941Z,84.57
2018-12-01T19:44:27.807Z,87.30
2018-12-01T19:46:58.247Z,94.63
2018-12-01T19:49:28.144Z,97.13
2018-12-01T19:51:58.316Z,90.10
2018-12-01T19:54:28.447Z,91.17
2018-12-01T19:56:58.337Z,112.67
2018-12-01T19:59:28.405Z,102.40
2018-12-01T20:01:58.287Z,90.73
2018-12-01T20:04:28.163Z,87.97
2018-12-01T20:06:59.153Z,86.23
2018-12-01T20:09:29.397Z,90.53
2018-12-01T20:11:59.719Z,106.90
2018-12-01T20:14:29.796Z,141.13
2018-12-01T20:16:59.768Z,105.23
2018-12-01T20:19:29.920Z,103.73
2018-12-01T20:21:59.715Z,92.90
2018-12-01T20:24:29.968Z,97.40
2018-12-01T20:27:00.550Z,91.40
2018-12-01T20:29:30.832Z,90.77
2018-12-01T20:32:01.219Z,89.77
2018-12-01T20:34:31.730Z,98.13
2018-12-01T20:37:04.706Z,94.37
2018-12-01T20:39:37.403Z,94.90
2018-12-01T20:42:07.338Z,96.03
2018-12-01T20:44:37.424Z,103.40
2018-12-01T20:47:07.409Z,91.50
2018-12-01T20:49:37.601Z,93.47
2018-12-01T20:52:08.065Z,92.87
2018-12-01T20:54:42.820Z,90.77
2018-12-01T20:57:29.147Z,99.60
2018-12-01T20:59:59.202Z,95.37
2018-12-01T21:02:29.268Z,95.83
2018-12-01T21:04:59.425Z,98.40
2018-12-01T21:07:29.359Z,92.20
2018-12-01T21:09:59.241Z,99.43
2018-12-01T21:12:29.122Z,99.97
2018-12-01T21:14:59.047Z,102.40
2018-12-01T21:17:28.911Z,105.77
2018-12-01T21:19:58.813Z,108.70
2018-12-01T21:22:28.794Z,111.37
2018-12-01T21:24:58.586Z,106.13
2018-12-01T21:27:28.463Z,108.33
2018-12-01T21:29:58.313Z,99.80
2018-12-01T21:32:28.180Z,101.67
2018-12-01T21:34:58.062Z,100.10
2018-12-01T21:37:27.999Z,105.30
2018-12-01T21:39:57.835Z,97.53
2018-12-01T21:42:27.791Z,93.70
2018-12-01T21:44:57.695Z,95.67
2018-12-01T21:47:27.478Z,92.37
2018-12-01T21:49:57.253Z,95.70
2018-12-01T21:52:27.138Z,104.83
2018-12-01T21:54:57.456Z,97.97
2018-12-01T21:57:28.100Z,103.97
2018-12-01T21:59:57.808Z,98.93
2018-12-01T22:02:28.149Z,102.80
2018-12-01T22:04:58.827Z,111.20
2018-12-01T22:07:29.022Z,105.20
2018-12-01T22:09:58.773Z,101.00
2018-12-01T22:12:28.549Z,104.77
2018-12-01T22:14:59.526Z,94.80
2018-12-01T22:17:29.341Z,104.57
2018-12-01T22:19:59.204Z,102.67
2018-12-01T22:22:29.030Z,92.07
2018-12-01T22:24:59.091Z,99.17
2018-12-01T22:27:28.888Z,97.67
2018-12-01T22:29:59.395Z,97.67
2018-12-01T22:32:30.820Z,103.87
2018-12-01T22:35:01.072Z,98.13
2018-12-01T22:37:30.989Z,92.77
2018-12-01T22:40:01.304Z,102.80
2018-12-01T22:42:33.959Z,105.00
2018-12-01T22:45:03.753Z,99.33
2018-12-01T22:47:34.611Z,96.87
2018-12-01T22:50:06.377Z,98.80
2018-12-01T22:52:36.205Z,105.20
2018-12-01T22:55:08.127Z,97.43
2018-12-01T22:57:38.258Z,98.00
2018-12-01T23:00:20.468Z,95.47
2018-12-01T23:02:51.617Z,95.70
2018-12-01T23:05:22.161Z,96.90
2018-12-01T23:07:52.900Z,98.17
2018-12-01T23:10:23.502Z,102.70
2018-12-01T23:12:53.798Z,106.67
2018-12-01T23:15:23.879Z,114.43
2018-12-01T23:17:54.740Z,109.27
2018-12-01T23:20:26.312Z,95.83
2018-12-01T23:22:57.069Z,100.67
2018-12-01T23:25:26.931Z,103.33
2018-12-01T23:27:56.781Z,106.50
2018-12-01T23:30:28.316Z,98.03
2018-12-01T23:33:00.348Z,101.33
2018-12-01T23:35:31.528Z,103.17
2018-12-01T23:38:01.451Z,101.80
2018-12-01T23:40:33.253Z,103.03
2018-12-01T23:43:03.410Z,95.67
2018-12-01T23:45:33.962Z,95.47
2018-12-01T23:48:04.668Z,104.40
2018-12-01T23:50:33.725Z,97.30
2018-12-01T23:53:06.325Z,98.87
2018-12-01T23:55:36.141Z,95.80
2018-12-01T23:58:06.156Z,96.20
